createdAt,value
2022-09-24T00:03:05.924Z,100153.69
2022-09-24T00:08:08.685Z,100154.41
2022-09-24T00:13:13.884Z,100155.66
2022-09-24T00:18:17.346Z,100158.72
2022-09-24T00:23:19.950Z,100161.09
2022-09-24T00:28:23.984Z,100157.44
2022-09-24T00:33:28.150Z,100156.66
2022-09-24T00:38:30.846Z,100148.03
2022-09-24T00:43:35.650Z,100144.50
2022-09-24T00:48:40.313Z,100142.06
2022-09-24T00:53:42.924Z,100135.94
2022-09-24T00:58:49.952Z,100131.47
2022-09-24T01:03:54.095Z,100130.97
2022-09-24T01:08:56.918Z,100129.16
2022-09-24T01:14:26.740Z,100125.63
2022-09-24T01:19:42.638Z,100117.94
2022-09-24T01:25:03.096Z,100111.00
2022-09-24T01:30:07.890Z,100114.66
2022-09-24T01:35:13.362Z,100109.88
2022-09-24T01:40:16.193Z,100114.38
2022-09-24T01:45:20.482Z,100103.78
2022-09-24T01:50:23.083Z,100109.66
2022-09-24T01:55:27.085Z,100103.78
2022-09-24T02:00:31.115Z,100100.75
2022-09-24T02:05:34.800Z,100100.03
2022-09-24T02:10:39.188Z,100105.78
2022-09-24T02:15:43.872Z,100106.78
2022-09-24T02:20:46.535Z,100099.78
2022-09-24T02:25:50.645Z,100094.44
2022-09-24T02:30:56.033Z,100082.00
2022-09-24T02:35:58.744Z,100086.63
2022-09-24T02:41:01.397Z,100082.25
2022-09-24T02:46:05.602Z,100079.69
2022-09-24T02:51:08.281Z,100075.31
2022-09-24T02:56:11.166Z,100078.13
2022-09-24T03:01:15.201Z,100066.41
2022-09-24T03:06:17.859Z,100072.28
2022-09-24T03:11:20.565Z,100072.41
2022-09-24T03:16:24.570Z,100069.00
2022-09-24T03:21:27.174Z,100074.47
2022-09-24T03:26:29.931Z,100065.56
2022-09-24T03:31:33.967Z,100060.47
2022-09-24T03:36:36.719Z,100054.81
2022-09-24T03:41:39.335Z,100052.53
2022-09-24T03:46:43.852Z,100041.69
2022-09-24T03:51:46.458Z,100039.13
2022-09-24T03:56:49.197Z,100032.78
2022-09-24T04:01:53.176Z,100027.53
2022-09-24T04:06:55.833Z,100023.16
2022-09-24T04:11:59.048Z,100018.16
2022-09-24T04:17:03.677Z,100016.31
2022-09-24T04:22:06.635Z,100019.13
2022-09-24T04:27:09.254Z,100009.50
2022-09-24T04:32:13.385Z,100005.84
2022-09-24T04:37:16.013Z,100008.91
2022-09-24T04:42:18.698Z,100016.84
2022-09-24T04:47:25.860Z,100016.72
2022-09-24T04:52:29.835Z,100011.47
2022-09-24T04:57:35.960Z,100016.94
2022-09-24T05:02:40.061Z,100027.66
2022-09-24T05:07:44.459Z,100027.94
2022-09-24T05:12:48.127Z,100036.38
2022-09-24T05:17:52.117Z,100022.97
2022-09-24T05:22:55.390Z,100024.88
2022-09-24T05:27:57.983Z,100033.81
2022-09-24T05:33:01.936Z,100036.50
2022-09-24T05:38:04.559Z,100038.66
2022-09-24T05:43:07.179Z,100048.31
2022-09-24T05:48:11.171Z,100051.22
2022-09-24T05:53:13.871Z,100060.25
2022-09-24T05:58:16.511Z,100057.56
2022-09-24T06:03:20.971Z,100053.03
2022-09-24T06:08:23.813Z,100059.03
2022-09-24T06:13:26.472Z,100055.50
2022-09-24T06:18:31.329Z,100051.00
2022-09-24T06:23:33.918Z,100050.22
2022-09-24T06:28:36.593Z,100053.31
2022-09-24T06:33:40.951Z,100041.88
2022-09-24T06:38:45.363Z,100037.44
2022-09-24T06:43:47.965Z,100041.72
2022-09-24T06:48:51.933Z,100029.91
2022-09-24T06:53:54.532Z,100033.56
2022-09-24T06:58:57.184Z,100034.41
2022-09-24T07:04:01.471Z,100036.69
2022-09-24T07:09:04.667Z,100037.31
2022-09-24T07:14:07.506Z,100050.00
2022-09-24T07:19:11.529Z,100041.72
2022-09-24T07:24:14.464Z,100047.78
2022-09-24T07:29:17.164Z,100049.88
2022-09-24T07:34:21.342Z,100055.75
2022-09-24T07:39:24.133Z,100067.59
2022-09-24T07:44:26.751Z,100062.81
2022-09-24T07:49:32.183Z,100062.91
2022-09-24T07:54:35.136Z,100074.78
2022-09-24T07:59:37.764Z,100073.50
2022-09-24T08:04:42.019Z,100066.91
2022-09-24T08:09:44.654Z,100056.69
2022-09-24T08:14:47.266Z,100059.63
2022-09-24T08:19:52.139Z,100057.34
2022-09-24T08:24:54.859Z,100059.75
2022-09-24T08:29:57.777Z,100064.03
2022-09-24T08:35:01.897Z,100070.59
2022-09-24T08:40:04.808Z,100064.25
2022-09-24T08:45:25.708Z,100062.19
2022-09-24T08:50:30.715Z,100083.28
2022-09-24T08:55:36.266Z,100074.84
2022-09-24T09:00:41.464Z,100071.69
2022-09-24T09:05:52.941Z,100067.59
2022-09-24T09:10:58.102Z,100068.91
2022-09-24T09:16:03.303Z,100063.03
2022-09-24T09:21:14.879Z,100057.06
2022-09-24T09:26:20.089Z,100053.25
2022-09-24T09:31:29.084Z,100051.28
2022-09-24T09:36:40.761Z,100056.31
2022-09-24T09:41:46.950Z,100050.09
2022-09-24T09:46:52.826Z,100046.56
2022-09-24T09:51:57.418Z,100046.56
2022-09-24T09:57:00.157Z,100058.13
2022-09-24T10:02:02.930Z,100037.50
2022-09-24T10:07:08.434Z,100045.31
2022-09-24T10:12:16.478Z,100044.44
2022-09-24T10:17:19.369Z,100046.41
2022-09-24T10:22:23.785Z,100040.56
2022-09-24T10:27:30.844Z,100045.66
2022-09-24T10:32:33.484Z,100038.59
2022-09-24T10:37:37.428Z,100039.75
2022-09-24T10:42:40.117Z,100040.97
2022-09-24T10:47:44.051Z,100046.94
2022-09-24T10:52:52.253Z,100036.44
2022-09-24T10:57:59.977Z,100036.31
2022-09-24T11:03:36.294Z,100026.63
2022-09-24T11:08:52.767Z,100027.47
2022-09-24T11:13:59.410Z,100033.44
2022-09-24T11:19:02.820Z,100030.00
2022-09-24T11:24:19.273Z,100022.75
2022-09-24T11:29:54.360Z,100016.81
2022-09-24T11:35:06.327Z,100009.84
2022-09-24T11:40:21.809Z,100011.59
2022-09-24T11:45:35.087Z,100004.94
2022-09-24T11:50:47.720Z,100005.94
2022-09-24T11:55:53.627Z,100002.41
2022-09-24T12:00:58.389Z,99996.34
2022-09-24T12:06:03.233Z,99994.56
2022-09-24T12:11:09.525Z,99982.16
2022-09-24T12:16:13.645Z,99982.59
2022-09-24T12:21:18.332Z,99983.50
2022-09-24T12:26:22.366Z,99979.53
2022-09-24T12:31:47.925Z,99975.44
2022-09-24T12:36:59.090Z,99975.31
2022-09-24T12:42:03.896Z,99984.22
2022-09-24T12:47:07.085Z,99979.72
2022-09-24T12:52:17.449Z,99967.97
2022-09-24T12:57:25.696Z,99963.28
2022-09-24T13:02:29.736Z,99963.00
2022-09-24T13:07:34.235Z,99950.41
2022-09-24T13:12:38.409Z,99948.69
2022-09-24T13:17:40.979Z,99939.91
2022-09-24T13:22:43.718Z,99939.81
2022-09-24T13:27:56.885Z,99931.94
2022-09-24T13:33:03.818Z,99933.94
2022-09-24T13:38:08.131Z,99931.91
2022-09-24T13:43:14.597Z,99931.88
2022-09-24T13:48:19.202Z,99942.81
2022-09-24T13:53:24.895Z,99940.91
2022-09-24T13:58:29.516Z,99945.41
2022-09-24T14:03:33.273Z,99935.03
2022-09-24T14:08:35.925Z,99923.22
2022-09-24T14:13:44.990Z,99931.03
2022-09-24T14:18:48.006Z,99921.84
2022-09-24T14:23:52.591Z,99928.09
2022-09-24T14:28:56.562Z,99932.03
2022-09-24T14:33:59.477Z,99924.25
2022-09-24T14:39:03.081Z,99924.63
2022-09-24T14:44:07.831Z,99927.63
2022-09-24T14:49:19.489Z,99923.09
2022-09-24T14:54:28.436Z,99930.47
2022-09-24T14:59:32.749Z,99927.78
2022-09-24T15:04:35.443Z,99922.94
2022-09-24T15:09:38.097Z,99931.63
2022-09-24T15:14:42.753Z,99921.22
2022-09-24T15:19:45.965Z,99921.09
2022-09-24T15:24:48.738Z,99930.31
2022-09-24T15:29:54.351Z,99928.63
2022-09-24T15:34:56.967Z,99932.03
2022-09-24T15:40:01.199Z,99926.44
2022-09-24T15:45:10.286Z,99922.34
2022-09-24T15:50:13.153Z,99921.88
2022-09-24T15:55:17.262Z,99924.19
2022-09-24T16:00:22.726Z,99922.22
2022-09-24T16:05:25.823Z,99927.31
2022-09-24T16:10:28.472Z,99928.16
2022-09-24T16:15:32.477Z,99934.44
2022-09-24T16:20:35.285Z,99927.09
2022-09-24T16:25:38.153Z,99931.03
2022-09-24T16:30:43.108Z,99927.78
2022-09-24T16:35:46.076Z,99933.81
2022-09-24T16:40:49.069Z,99935.97
2022-09-24T16:45:53.066Z,99935.38
2022-09-24T16:50:55.766Z,99944.28
2022-09-24T16:56:04.437Z,99942.59
2022-09-24T17:01:09.341Z,99944.63
2022-09-24T17:06:18.330Z,99945.47
2022-09-24T17:11:21.326Z,99946.59
2022-09-24T17:16:25.891Z,99937.09
2022-09-24T17:21:28.551Z,99935.97
2022-09-24T17:26:31.377Z,99935.13
2022-09-24T17:31:35.405Z,99932.56
2022-09-24T17:36:38.107Z,99942.50
2022-09-24T17:41:40.801Z,99938.81
2022-09-24T17:46:44.846Z,99948.72
2022-09-24T17:51:49.286Z,99954.69
2022-09-24T17:56:52.011Z,99958.22
2022-09-24T18:01:56.105Z,99947.13
2022-09-24T18:06:58.798Z,99953.25
2022-09-24T18:12:02.028Z,99954.22
2022-09-24T18:17:06.431Z,99959.34
2022-09-24T18:22:09.159Z,99965.28
2022-09-24T18:27:15.235Z,99963.59
2022-09-24T18:32:19.723Z,99964.59
2022-09-24T18:37:22.361Z,99962.72
2022-09-24T18:42:25.676Z,99965.28
2022-09-24T18:47:29.858Z,99968.13
2022-09-24T18:52:32.612Z,99972.50
2022-09-24T18:57:35.437Z,99970.81
2022-09-24T19:02:39.584Z,99963.44
2022-09-24T19:07:42.454Z,99957.34
2022-09-24T19:12:45.055Z,99965.13
2022-09-24T19:17:49.602Z,99955.50
2022-09-24T19:23:00.000Z,99964.97
2022-09-24T19:28:04.116Z,99967.56
2022-09-24T19:33:08.553Z,99964.41
2022-09-24T19:38:11.276Z,99961.56
2022-09-24T19:43:14.098Z,99966.25
2022-09-24T19:48:18.035Z,99959.31
2022-09-24T19:53:20.795Z,99962.88
2022-09-24T19:58:23.393Z,99956.63
2022-09-24T20:03:27.382Z,99955.06
2022-09-24T20:08:30.343Z,99963.44
2022-09-24T20:13:33.172Z,99966.97
2022-09-24T20:18:37.146Z,99965.13
2022-09-24T20:23:40.004Z,99955.34
2022-09-24T20:28:42.856Z,99952.34
2022-09-24T20:33:46.885Z,99960.75
2022-09-24T20:38:49.600Z,99952.25
2022-09-24T20:43:52.323Z,99959.34
2022-09-24T20:48:58.435Z,99959.03
2022-09-24T20:54:01.153Z,99963.59
2022-09-24T20:59:04.212Z,99976.19
2022-09-24T21:04:08.166Z,99967.97
2022-09-24T21:09:10.789Z,99978.59
2022-09-24T21:14:14.603Z,99978.75
2022-09-24T21:19:18.838Z,99972.50
2022-09-24T21:24:24.192Z,99969.28
2022-09-24T21:29:29.056Z,99977.34
2022-09-24T21:34:33.524Z,99972.22
2022-09-24T21:39:36.529Z,99982.44
2022-09-24T21:44:39.157Z,99977.22
2022-09-24T21:49:43.130Z,99975.66
2022-09-24T21:54:45.823Z,99980.22
2022-09-24T22:00:00.616Z,99985.84
2022-09-24T22:05:05.134Z,99978.47
2022-09-24T22:10:08.649Z,99977.06
2022-09-24T22:15:11.419Z,99972.00
2022-09-24T22:20:15.467Z,99963.75
2022-09-24T22:25:18.259Z,99976.22
2022-09-24T22:30:21.025Z,99969.00
2022-09-24T22:35:43.583Z,99976.63
2022-09-24T22:40:46.365Z,99972.69
2022-09-24T22:45:49.004Z,99976.94
2022-09-24T22:50:52.976Z,99980.06
2022-09-24T22:56:03.447Z,99975.09
2022-09-24T23:01:07.533Z,99978.38
2022-09-24T23:06:12.555Z,99977.22
2022-09-24T23:11:15.885Z,99977.94
2022-09-24T23:16:19.830Z,99975.94
2022-09-24T23:21:24.474Z,99981.06
2022-09-24T23:26:27.385Z,99986.72
2022-09-24T23:31:30.985Z,99984.47
2022-09-24T23:36:35.531Z,99988.41
2022-09-24T23:41:38.291Z,99979.78
2022-09-24T23:46:41.039Z,99976.38
2022-09-24T23:51:45.029Z,99972.00
2022-09-24T23:56:47.718Z,99974.69
